American B738 at Boise on Jan 16th 2023, runway excursion

Last Update: January 19, 2023 / 22:18:42 GMT/Zulu time

Bookmark this article
Incident Facts

Date of incident
Jan 16, 2023

Classification
Incident

Flight number
AA-2990

Aircraft Registration
N934NN

Aircraft Type
Boeing 737-800

ICAO Type Designator
B738

Airport ICAO Code
KBOI

An American Airlines Boeing 737-800, registration N934NN performing flight AA-2990 from Dallas Ft. Worth,TX to Boise,ID (USA), landed on Boise's runway 28R at 21:50L (04:50Z Jan 17th) and rolled out, towards the end of the roll out the aircraft went off the right hand edge of the runway. The next approach to runway 28R accepted to change their landing runway to 28L. The runway was closed.

The aircraft is still on the ground in Boise about 65 hours after landing.

Metars:
KBOI 170753Z 27003KT 10SM CLR M01/M03 A2974 RMK AO2 SLP084 T10111033=
KBOI 170653Z 27003KT 10SM CLR M01/M03 A2974 RMK AO2 SLP082 T10061028 400721006=
KBOI 170553Z 30005KT 10SM CLR 00/M02 A2972 RMK AO2 SLP075 T00001022 10056 20000 53010=
KBOI 170453Z 30005KT 10SM CLR 01/M02 A2970 RMK AO2 SLP071 T00061017=
KBOI 170353Z 28004KT 10SM CLR 02/M01 A2969 RMK AO2 SLP066 T00221011=
KBOI 170253Z 31004KT 10SM OVC080 03/M01 A2968 RMK AO2 SLP063 T00281006 53013=
KBOI 170153Z 29005KT 10SM OVC120 03/M01 A2967 RMK AO2 SLP057 T00331011=
KBOI 170053Z 32006KT 10SM FEW120 04/M01 A2966 RMK AO2 SLP050 T00391011=

Related NOTAMs:
!BOI 01/182 BOI RWY 10R/28L CLSD 2301181500-2301181600
!BOI 01/183 BOI RWY 10L/28R CLSD 2301170500-2301170900EST
!BOI 01/181 BOI RWY 10L/28R CLSD 2301171500-2301171600
!BOI 01/186 BOI RWY 10L/28R CLSD 2301170654-2301171700EST
!BOI 01/188 BOI RWY 10L/28R CLSD 2301170758-2301171900EST
Aircraft Registration Data
Registration mark
N934NN
Country of Registration
United States
Date of Registration
IiAdjhlccjqgqdhc Subscribe to unlock
Manufacturer
BOEING
Aircraft Model / Type
737-823
Number of Seats
ICAO Aircraft Type
B738
Year of Manufacture
Serial Number
Aircraft Address / Mode S Code (HEX)
Engine Count
Engine Manufacturer
Engine Model
Engine Type
Pounds of Thrust
Main Owner
Fm AffipnkAhednn qcglAecAAciigidkqklbjAAcqlp blAkccdAlcggcnAAkmkjjmbdpdfp iqeqclcek Subscribe to unlock
Incident Facts

Date of incident
Jan 16, 2023

Classification
Incident

Flight number
AA-2990

Aircraft Registration
N934NN

Aircraft Type
Boeing 737-800

ICAO Type Designator
B738

Airport ICAO Code
KBOI

This article is published under license from Avherald.com. © of text by Avherald.com.
Article source

You can read 2 more free articles without a subscription.

Subscribe now and continue reading without any limits!

Are you a subscriber? Login
Subscribe

Read unlimited articles and receive our daily update briefing. Gain better insights into what is happening in commercial aviation safety.

Send tip

Support AeroInside by sending a small tip amount.

Related articles

Newest articles

Subscribe today

Are you researching aviation incidents? Get access to AeroInside Insights, unlimited read access and receive the daily newsletter.

Pick your plan and subscribe

Partner

Blockaviation logo

A new way to document and demonstrate airworthiness compliance and aircraft value. Find out more.

Virtual Speech logo

ELITE Simulation Solutions is a leading global provider of Flight Simulation Training Devices, IFR training software as well as flight controls and related services. Find out more.

AeroInside Blog
Popular aircraft
Airbus A320
Boeing 737-800
Boeing 737-800 MAX
Popular airlines
American Airlines
United
Delta
Air Canada
Lufthansa
British Airways